Time;durP1;ratioP1;P1;durP2;ratioP2;P2;SDS_P1;SDS_P2;PMS_P1;PMS_P2;Temp;Humidity;BMP_temperature;BMP_pressure;BME280_temperature;BME280_humidity;BME280_pressure;Samples;Min_cycle;Max_cycle;Signal;HPM_P1;HPM_P2
2022/05/20 00:02:22;;;;;;;3.95;2.25;;;7.20;99.90;212.10;228463.00;;;;5070517;28;20183;-58
2022/05/20 00:04:48;;;;;;;5.72;2.30;;;;;212.10;228463.00;;;;5063838;28;20095;-60
2022/05/20 00:07:15;;;;;;;4.72;2.30;;;;;212.10;228463.00;;;;5063943;28;20041;-61
2022/05/20 00:09:41;;;;;;;4.30;2.53;;;;;212.10;228463.00;;;;5063859;28;20052;-60
2022/05/20 00:12:09;;;;;;;3.88;2.60;;;;;212.10;228463.00;;;;5063766;28;20076;-61
2022/05/20 00:14:36;;;;;;;6.50;2.53;;;;;212.10;228463.00;;;;5063975;28;20037;-60
2022/05/20 00:17:05;;;;;;;3.30;2.20;;;;;212.10;228463.00;;;;5064169;28;20722;-60
2022/05/20 00:19:33;;;;;;;4.38;2.30;;;7.30;99.90;212.10;228463.00;;;;5062722;28;20041;-60
2022/05/20 00:21:59;;;;;;;5.57;2.33;;;;;212.10;228463.00;;;;5063406;28;20037;-58
2022/05/20 00:24:27;;;;;;;3.55;2.50;;;;;212.10;228463.00;;;;5063330;28;20052;-58
2022/05/20 00:26:54;;;;;;;5.43;2.70;;;7.30;99.90;212.10;228463.00;;;;5062922;28;20388;-58
2022/05/20 00:29:20;;;;;;;4.97;2.67;;;;;212.10;228463.00;;;;5079841;28;20116;-58
2022/05/20 00:31:47;;;;;;;3.63;2.42;;;;;212.10;228463.00;;;;5063487;28;20030;-58
2022/05/20 00:34:13;;;;;;;6.47;2.80;;;;;212.10;228463.00;;;;5062850;28;20096;-60
2022/05/20 00:36:40;;;;;;;6.47;2.60;;;;;212.10;228463.00;;;;5063618;28;20522;-60
2022/05/20 00:39:06;;;;;;;4.53;2.65;;;;;212.10;228463.00;;;;5063483;28;20043;-60
2022/05/20 00:41:33;;;;;;;3.92;2.58;;;;;212.10;228463.00;;;;5063344;28;20559;-60
2022/05/20 00:43:59;;;;;;;3.95;2.40;;;;;212.10;228463.00;;;;5062820;28;20065;-56
2022/05/20 00:46:28;;;;;;;7.03;2.60;;;7.20;99.90;212.10;228463.00;;;;5095954;28;20037;-57
2022/05/20 00:49:03;;;;;;;4.50;2.60;;;7.20;99.90;212.10;228463.00;;;;5063302;28;20086;-58
2022/05/20 00:51:31;;;;;;;7.53;2.70;;;;;212.10;228463.00;;;;5044327;28;20095;-58
2022/05/20 00:54:27;;;;;;;3.63;2.40;;;7.10;99.90;212.10;228463.00;;;;5060677;28;20099;-57
2022/05/20 00:56:59;;;;;;;7.05;3.00;;;;;212.10;228463.00;;;;5075640;28;20056;-54
2022/05/20 00:59:28;;;;;;;3.58;2.53;;;;;212.10;228463.00;;;;5065674;28;20114;-55
2022/05/20 01:01:59;;;;;;;5.53;2.55;;;7.00;99.90;212.10;228463.00;;;;5061671;28;20063;-57
2022/05/20 01:04:25;;;;;;;3.50;2.40;;;;;212.10;228463.00;;;;5062548;28;20037;-59
2022/05/20 01:06:53;;;;;;;5.40;2.60;;;7.00;99.90;212.10;228463.00;;;;5062802;28;20488;-57
2022/05/20 01:09:20;;;;;;;4.47;2.25;;;;;212.10;228463.00;;;;5062063;28;20467;-58
2022/05/20 01:11:47;;;;;;;5.35;2.63;;;;;212.10;228463.00;;;;5062710;28;20038;-57
2022/05/20 01:14:25;;;;;;;3.03;2.10;;;6.90;99.90;212.10;228463.00;;;;5062306;28;20115;-57
2022/05/20 01:16:51;;;;;;;3.35;2.08;;;;;212.10;228463.00;;;;5061862;28;20103;-58
2022/05/20 01:19:42;;;;;;;4.78;2.00;;;7.00;99.90;212.10;228463.00;;;;5061713;28;20037;-58
2022/05/20 01:22:11;;;;;;;3.63;2.30;;;;;212.10;228463.00;;;;5061257;28;20049;-55
2022/05/20 01:24:38;;;;;;;6.28;2.30;;;;;212.10;228463.00;;;;5061184;28;20044;-57
2022/05/20 01:27:05;;;;;;;5.30;2.28;;;6.90;99.90;212.10;228463.00;;;;5062139;28;20468;-58
2022/05/20 01:29:31;;;;;;;4.05;2.03;;;;;212.10;228463.00;;;;5062733;28;20037;-58
2022/05/20 01:31:58;;;;;;;5.65;1.98;;;6.90;99.90;212.10;228463.00;;;;5061557;28;20507;-58
2022/05/20 01:34:24;;;;;;;4.25;2.03;;;;;212.10;228463.00;;;;5062136;28;20041;-57
2022/05/20 01:36:51;;;;;;;4.95;2.55;;;;;212.10;228463.00;;;;5061914;28;21325;-57
2022/05/20 01:39:17;;;;;;;3.13;2.08;;;;;212.10;228463.00;;;;5062169;28;20091;-58
2022/05/20 01:42:18;;;;;;;3.60;2.20;;;;;212.10;228463.00;;;;5061322;28;20068;-57
2022/05/20 01:44:52;;;;;;;8.00;2.27;;;;;212.10;228463.00;;;;5061189;28;20037;-57
2022/05/20 01:47:47;;;;;;;5.20;2.42;;;6.80;99.90;212.10;228463.00;;;;5062270;28;20494;-58
2022/05/20 01:50:20;;;;;;;3.53;1.85;;;;;212.10;228463.00;;;;5059859;28;20037;-57
2022/05/20 01:53:28;;;;;;;4.90;1.92;;;6.80;99.90;212.10;228463.00;;;;5062024;28;20475;-58
2022/05/20 01:56:16;;;;;;;3.58;1.70;;;;;212.10;228463.00;;;;5058487;28;20053;-58
2022/05/20 01:59:31;;;;;;;3.25;1.67;;;6.90;99.90;212.10;228463.00;;;;5065037;28;20037;-58
2022/05/20 02:02:08;;;;;;;3.15;1.98;;;;;212.10;228463.00;;;;5061178;28;20454;-57
2022/05/20 02:04:43;;;;;;;2.40;1.48;;;6.90;99.90;212.10;228463.00;;;;5061289;28;20535;-57
2022/05/20 02:07:17;;;;;;;3.22;1.38;;;;;212.10;228463.00;;;;5061105;28;20105;-58
2022/05/20 02:09:56;;;;;;;2.15;1.80;;;6.90;99.90;212.10;228463.00;;;;5062060;28;20522;-58
2022/05/20 02:12:26;;;;;;;5.25;1.70;;;6.90;99.90;212.10;228463.00;;;;5061970;28;20037;-59
2022/05/20 02:15:06;;;;;;;2.58;1.60;;;;;212.10;228463.00;;;;5061101;28;20096;-59
2022/05/20 02:17:38;;;;;;;4.70;1.60;;;;;212.10;228463.00;;;;5050425;28;20045;-59
2022/05/20 02:20:22;;;;;;;;;;;6.90;99.90;212.10;228463.00;;;;5059812;28;20089;-59
2022/05/20 02:22:58;;;;;;;3.17;1.65;;;6.90;99.90;212.10;228463.00;;;;5053962;28;20011;-59
2022/05/20 02:25:28;;;;;;;3.10;1.58;;;;;212.10;228463.00;;;;5058297;28;20456;-55
2022/05/20 02:28:04;;;;;;;3.50;1.48;;;7.00;99.90;212.10;228463.00;;;;5044078;28;20049;-59
2022/05/20 02:30:34;;;;;;;3.67;1.65;;;7.00;99.90;212.10;228463.00;;;;5058759;28;20487;-60
2022/05/20 02:33:00;;;;;;;4.75;1.40;;;;;212.10;228463.00;;;;5057381;28;20030;-61
2022/05/20 02:35:27;;;;;;;4.60;1.40;;;;;212.10;228463.00;;;;5042065;28;20041;-61
2022/05/20 02:37:54;;;;;;;2.20;1.50;;;;;212.10;228463.00;;;;5052358;28;20529;-62
2022/05/20 02:40:21;;;;;;;1.90;1.50;;;7.20;99.90;212.10;228463.00;;;;5060128;28;20033;-58
2022/05/20 02:42:47;;;;;;;4.88;1.60;;;;;212.10;228463.00;;;;5061487;28;20049;-59
2022/05/20 02:45:14;;;;;;;3.00;1.45;;;;;212.10;228463.00;;;;5059848;28;20396;-59
2022/05/20 02:47:41;;;;;;;2.70;1.60;;;;;212.10;228463.00;;;;5060759;28;20045;-58
2022/05/20 02:50:09;;;;;;;2.58;1.23;;;;;212.10;228463.00;;;;5060677;28;20095;-59
2022/05/20 02:52:36;;;;;;;2.08;1.25;;;;;212.10;228463.00;;;;5059661;28;20044;-59
2022/05/20 02:55:04;;;;;;;2.50;1.20;;;8.40;99.90;212.10;228463.00;;;;5059771;28;20053;-58
2022/05/20 02:57:31;;;;;;;3.25;1.45;;;;;212.10;228463.00;;;;5061047;28;20049;-58
2022/05/20 03:05:28;;;;;;;2.53;1.38;;;;;212.10;228463.00;;;;5061795;28;20041;-59
2022/05/20 03:07:54;;;;;;;2.67;1.30;;;;;212.10;228463.00;;;;5063528;28;20111;-62
2022/05/20 03:10:21;;;;;;;0.93;0.73;;;;;212.10;228463.00;;;;5064749;28;20036;-61
2022/05/20 03:12:47;;;;;;;4.72;0.90;;;10.60;99.90;212.10;228463.00;;;;5064593;28;20501;-62
2022/05/20 03:15:16;;;;;;;1.27;1.02;;;;;212.10;228463.00;;;;5065089;28;20045;-61
2022/05/20 03:17:43;;;;;;;2.90;0.93;;;10.10;99.90;212.10;228463.00;;;;5064587;28;20049;-61
2022/05/20 03:20:10;;;;;;;5.18;1.00;;;;;212.10;228463.00;;;;5064723;28;20033;-62
2022/05/20 03:22:37;;;;;;;1.10;0.70;;;10.90;99.90;212.10;228463.00;;;;5064060;28;20132;-62
2022/05/20 03:25:05;;;;;;;2.80;0.80;;;11.10;99.90;212.10;228463.00;;;;5064487;28;20033;-61
2022/05/20 03:27:33;;;;;;;1.67;0.90;;;;;212.10;228463.00;;;;5064623;28;20131;-62
2022/05/20 03:29:59;;;;;;;2.30;0.73;;;10.90;99.90;212.10;228463.00;;;;5064698;28;20179;-61
2022/05/20 03:32:26;;;;;;;1.58;0.73;;;;;212.10;228463.00;;;;5064040;28;20045;-62
2022/05/20 03:34:52;;;;;;;2.10;0.75;;;;;212.10;228463.00;;;;5060091;28;20042;-62
2022/05/20 03:37:19;;;;;;;1.75;0.82;;;;;212.10;228463.00;;;;5048881;28;20044;-61
2022/05/20 03:39:45;;;;;;;0.88;0.80;;;;;212.10;228463.00;;;;5063195;28;20426;-61
2022/05/20 03:42:12;;;;;;;3.10;1.20;;;;;212.10;228463.00;;;;5064044;28;20038;-61
2022/05/20 03:44:38;;;;;;;2.72;0.90;;;;;212.10;228463.00;;;;5064104;28;20033;-61
2022/05/20 03:47:05;;;;;;;2.47;1.00;;;;;212.10;228463.00;;;;5064301;28;20124;-61
2022/05/20 03:49:32;;;;;;;3.08;0.80;;;;;212.10;228463.00;;;;5063242;28;20037;-60
2022/05/20 03:51:59;;;;;;;2.75;1.10;;;;;212.10;228463.00;;;;5078340;28;20089;-60
2022/05/20 03:54:29;;;;;;;1.45;1.00;;;10.30;99.90;212.10;228463.00;;;;5059763;28;20476;-61
2022/05/20 03:56:56;;;;;;;1.93;0.87;;;;;212.10;228463.00;;;;5063774;28;20037;-62
2022/05/20 03:59:22;;;;;;;1.75;1.13;;;10.30;99.90;212.10;228463.00;;;;5067079;28;20258;-62
2022/05/20 04:01:57;;;;;;;1.95;1.00;;;;;212.10;228463.00;;;;5063646;28;20052;-62
2022/05/20 04:04:38;;;;;;;1.95;1.00;;;;;212.10;228463.00;;;;5063487;28;20029;-66
2022/05/20 04:07:11;;;;;;;2.22;1.00;;;;;212.10;228463.00;;;;5062708;28;20127;-62
2022/05/20 04:09:39;;;;;;;2.22;0.90;;;;;212.10;228463.00;;;;5056638;28;20440;-61
2022/05/20 04:12:17;;;;;;;3.10;1.00;;;10.30;99.90;212.10;228463.00;;;;5045866;28;20907;-62
2022/05/20 04:14:43;;;;;;;4.63;1.10;;;;;212.10;228463.00;;;;5063109;28;20056;-62
2022/05/20 04:17:10;;;;;;;1.45;1.08;;;;;212.10;228463.00;;;;5063086;28;20038;-60
2022/05/20 04:19:36;;;;;;;5.88;1.20;;;10.50;99.90;212.10;228463.00;;;;5063319;28;20041;-62
2022/05/20 04:22:06;;;;;;;3.00;1.20;;;;;212.10;228463.00;;;;5063393;28;20609;-62
2022/05/20 04:24:32;;;;;;;1.95;0.90;;;;;212.10;228463.00;;;;5063141;28;20559;-61
2022/05/20 04:26:59;;;;;;;6.00;1.08;;;;;212.10;228463.00;;;;5063820;28;20046;-61
2022/05/20 04:29:25;;;;;;;1.50;1.05;;;;;212.10;228463.00;;;;5062659;28;20034;-61
2022/05/20 04:31:52;;;;;;;2.03;1.20;;;;;212.10;228463.00;;;;5063246;28;20484;-61
2022/05/20 04:34:20;;;;;;;1.75;1.23;;;11.30;99.90;212.10;228463.00;;;;5063281;28;20187;-61
2022/05/20 04:36:48;;;;;;;2.97;1.15;;;;;212.10;228463.00;;;;5062206;28;20046;-61
2022/05/20 04:39:15;;;;;;;2.30;1.02;;;;;212.10;228463.00;;;;5062527;28;20607;-61
2022/05/20 04:47:24;;;;;;;2.90;1.70;;;9.70;99.90;212.10;228463.00;;;;5062604;28;20042;-62
2022/05/20 04:49:50;;;;;;;2.05;1.10;;;10.40;99.90;212.10;228463.00;;;;5062157;28;20906;-62
2022/05/20 04:52:16;;;;;;;2.05;1.27;;;10.70;99.90;212.10;228463.00;;;;5060049;28;20029;-61
2022/05/20 04:54:49;;;;;;;2.45;1.25;;;;;212.10;228463.00;;;;5061830;28;20468;-62
2022/05/20 04:57:44;;;;;;;2.78;1.30;;;;;212.10;228463.00;;;;5061690;28;20039;-61
2022/05/20 05:00:17;;;;;;;3.10;1.27;;;11.00;99.90;212.10;228463.00;;;;5063093;28;20045;-61
2022/05/20 05:02:45;;;;;;;8.85;1.42;;;10.90;99.90;212.10;228463.00;;;;5062801;28;20045;-61
2022/05/20 05:05:14;;;;;;;1.67;1.20;;;;;212.10;228463.00;;;;5062761;28;20037;-60
2022/05/20 05:07:44;;;;;;;6.78;1.25;;;11.30;99.90;212.10;228463.00;;;;5062526;28;20053;-61
2022/05/20 05:10:12;;;;;;;2.88;1.48;;;;;212.10;228463.00;;;;5062756;28;20100;-61
2022/05/20 05:12:39;;;;;;;3.13;1.25;;;;;212.10;228463.00;;;;5073859;28;20119;-61
2022/05/20 05:15:07;;;;;;;5.88;1.58;;;11.30;99.90;212.10;228463.00;;;;5077704;28;20041;-62
2022/05/20 05:20:21;;;;;;;6.75;1.50;;;;;212.10;228463.00;;;;5058196;28;20479;-62
2022/05/20 05:22:52;;;;;;;2.17;1.25;;;;;212.10;228463.00;;;;5061330;28;20040;-61
2022/05/20 05:25:25;;;;;;;3.37;1.30;;;11.50;99.90;212.10;228463.00;;;;5061103;28;20164;-62
2022/05/20 05:27:52;;;;;;;3.70;1.80;;;;;212.10;228463.00;;;;5061945;28;20124;-61
2022/05/20 05:30:19;;;;;;;8.05;1.90;;;11.30;99.90;212.10;228463.00;;;;5060496;28;20044;-61
2022/05/20 05:32:46;;;;;;;3.65;1.48;;;;;212.10;228463.00;;;;5057971;28;20456;-62
2022/05/20 05:35:16;;;;;;;3.17;1.42;;;;;212.10;228463.00;;;;5061628;28;20029;-62
2022/05/20 05:37:43;;;;;;;2.65;0.90;;;;;212.10;228463.00;;;;5061919;28;20541;-61
2022/05/20 05:40:13;;;;;;;2.70;1.15;;;;;212.10;228463.00;;;;5060527;28;20037;-61
2022/05/20 05:42:42;;;;;;;1.67;1.17;;;;;212.10;228463.00;;;;5045513;28;20049;-61
2022/05/20 05:45:12;;;;;;;3.72;1.25;;;9.30;99.90;212.10;228463.00;;;;5061102;28;20033;-61
2022/05/20 05:47:38;;;;;;;4.75;1.27;;;;;212.10;228463.00;;;;5062058;28;20064;-62
2022/05/20 05:50:05;;;;;;;3.05;1.48;;;;;212.10;228463.00;;;;5060275;28;20037;-62
2022/05/20 05:52:32;;;;;;;2.78;1.05;;;;;212.10;228463.00;;;;5060250;28;20127;-61
2022/05/20 05:55:01;;;;;;;2.85;0.80;;;;;212.10;228463.00;;;;5060888;28;20045;-61
2022/05/20 05:57:28;;;;;;;1.88;0.70;;;11.30;94.30;212.10;228463.00;;;;5061584;28;20045;-62
2022/05/20 05:59:56;;;;;;;0.98;0.85;;;;;212.10;228463.00;;;;5067201;28;20548;-62
2022/05/20 06:02:22;;;;;;;4.97;0.85;;;10.90;95.40;212.10;228463.00;;;;5068076;28;20051;-60
2022/05/20 06:04:50;;;;;;;2.85;0.88;;;10.90;95.00;212.10;228463.00;;;;5062322;28;20037;-61
2022/05/20 06:07:16;;;;;;;1.27;0.80;;;;;212.10;228463.00;;;;5061525;28;20044;-61
2022/05/20 06:09:45;;;;;;;1.60;1.00;;;;;212.10;228463.00;;;;5061744;28;20045;-61
2022/05/20 06:12:14;;;;;;;1.65;0.80;;;11.00;99.00;212.10;228463.00;;;;5061226;28;20029;-60
2022/05/20 06:14:41;;;;;;;4.50;1.10;;;10.60;96.10;212.10;228463.00;;;;5067904;28;20135;-61
2022/05/20 06:17:11;;;;;;;2.08;1.10;;;;;212.10;228463.00;;;;5061049;28;20033;-62
2022/05/20 06:19:41;;;;;;;1.80;1.10;;;9.50;95.60;212.10;228463.00;;;;5062171;28;20520;-61
2022/05/20 06:22:09;;;;;;;3.05;1.10;;;9.20;95.80;212.10;228463.00;;;;5060942;28;20064;-61
2022/05/20 06:24:36;;;;;;;3.45;1.08;;;9.10;99.50;212.10;228463.00;;;;5055954;28;20037;-61
2022/05/20 06:27:03;;;;;;;2.47;0.88;;;;;212.10;228463.00;;;;5060558;28;20349;-61
2022/05/20 06:29:30;;;;;;;2.30;0.90;;;;;212.10;228463.00;;;;5061901;28;20030;-61
2022/05/20 06:31:57;;;;;;;1.88;1.00;;;;;212.10;228463.00;;;;5060536;28;20037;-62
2022/05/20 06:34:23;;;;;;;3.08;1.10;;;;;212.10;228463.00;;;;5061578;28;20490;-61
2022/05/20 06:39:50;;;;;;;3.22;1.05;;;;;212.10;228463.00;;;;5052859;28;20061;-61
2022/05/20 06:42:16;;;;;;;3.40;0.95;;;;;212.10;228463.00;;;;5057935;28;20056;-60
2022/05/20 06:44:45;;;;;;;4.28;1.20;;;;;212.10;228463.00;;;;5061262;28;20497;-59
2022/05/20 06:47:12;;;;;;;2.65;1.05;;;;;212.10;228463.00;;;;5043629;28;20748;-59
2022/05/20 06:49:38;;;;;;;2.15;1.13;;;;;212.10;228463.00;;;;5060033;28;20175;-59
2022/05/20 06:52:05;;;;;;;3.53;1.30;;;;;212.10;228463.00;;;;5059492;28;20037;-60
2022/05/20 06:54:31;;;;;;;5.07;1.50;;;;;212.10;228463.00;;;;5058689;28;20042;-60
2022/05/20 06:56:58;;;;;;;1.67;1.20;;;;;212.10;228463.00;;;;5060319;28;20044;-60
2022/05/20 06:59:24;;;;;;;4.68;1.20;;;;;212.10;228463.00;;;;5062512;28;20037;-60
2022/05/20 07:01:52;;;;;;;3.42;1.10;;;;;212.10;228463.00;;;;5071688;28;20037;-60
2022/05/20 07:04:19;;;;;;;3.13;1.17;;;;;212.10;228463.00;;;;5061036;28;20143;-59
2022/05/20 07:06:46;;;;;;;2.50;1.17;;;;;212.10;228463.00;;;;5060832;28;20046;-59
2022/05/20 07:09:12;;;;;;;2.65;1.25;;;;;212.10;228463.00;;;;5060465;28;20045;-59
2022/05/20 07:11:39;;;;;;;3.13;1.02;;;;;212.10;228463.00;;;;5067173;28;20041;-58
2022/05/20 07:14:05;;;;;;;2.38;1.08;;;;;212.10;228463.00;;;;5061003;28;20476;-59
2022/05/20 07:16:32;;;;;;;5.43;1.30;;;;;212.10;228463.00;;;;5060768;28;20041;-58
2022/05/20 07:18:58;;;;;;;4.35;1.20;;;;;212.10;228463.00;;;;5061226;28;20097;-59
2022/05/20 07:21:25;;;;;;;2.40;1.10;;;;;212.10;228463.00;;;;5060553;28;20030;-60
2022/05/20 07:23:51;;;;;;;3.50;1.23;;;;;212.10;228463.00;;;;5060335;28;20072;-60
2022/05/20 07:26:18;;;;;;;2.58;0.93;;;;;212.10;228463.00;;;;5060865;28;20083;-61
2022/05/20 07:28:45;;;;;;;3.00;1.13;;;;;212.10;228463.00;;;;5060451;28;20065;-60
2022/05/20 07:31:12;;;;;;;1.13;0.90;;;9.40;92.10;212.10;228463.00;;;;5059543;28;20037;-58
2022/05/20 07:33:39;;;;;;;2.03;0.82;;;;;212.10;228463.00;;;;5060521;28;20041;-61
2022/05/20 07:36:06;;;;;;;5.88;1.20;;;9.20;96.30;212.10;228463.00;;;;5061186;28;20037;-59
2022/05/20 07:38:33;;;;;;;1.52;0.90;;;;;212.10;228463.00;;;;5060156;28;20204;-61
2022/05/20 07:41:00;;;;;;;3.58;1.17;;;;;212.10;228463.00;;;;5060516;28;20130;-60
2022/05/20 07:43:27;;;;;;;3.40;1.35;;;;;212.10;228463.00;;;;5060584;28;20460;-61
2022/05/20 07:45:54;;;;;;;3.80;1.30;;;9.20;97.70;212.10;228463.00;;;;5060361;28;20091;-62
2022/05/20 07:48:20;;;;;;;3.47;1.38;;;9.30;97.10;212.10;228463.00;;;;5059798;28;20037;-60
2022/05/20 07:50:49;;;;;;;3.65;1.40;;;;;212.10;228463.00;;;;5059056;28;20708;-61
2022/05/20 07:53:20;;;;;;;1.98;1.00;;;8.60;91.70;212.10;228463.00;;;;5059862;28;20033;-61
2022/05/20 07:56:01;;;;;;;3.10;1.20;;;8.70;95.00;212.10;228463.00;;;;5078786;28;20106;-60
2022/05/20 07:58:31;;;;;;;3.75;1.30;;;9.00;91.30;212.10;228463.00;;;;5064001;28;20637;-59
2022/05/20 08:00:58;;;;;;;1.88;1.20;;;9.20;91.10;212.10;228463.00;;;;5065876;28;20045;-59
2022/05/20 08:06:13;;;;;;;2.90;1.10;;;;;212.10;228463.00;;;;5048282;28;20428;-59
2022/05/20 08:08:40;;;;;;;2.50;1.30;;;;;212.10;228463.00;;;;5063509;28;20065;-60
2022/05/20 08:11:07;;;;;;;5.07;1.23;;;;;212.10;228463.00;;;;5062901;28;20057;-59
2022/05/20 08:13:34;;;;;;;2.78;1.20;;;;;212.10;228463.00;;;;5063617;28;20037;-58
2022/05/20 08:16:01;;;;;;;3.78;1.20;;;;;212.10;228463.00;;;;5062355;28;20604;-59
2022/05/20 08:18:27;;;;;;;2.60;1.20;;;;;212.10;228463.00;;;;5063203;28;20731;-61
2022/05/20 08:20:55;;;;;;;3.35;1.52;;;;;212.10;228463.00;;;;5063208;28;20037;-59
2022/05/20 08:23:22;;;;;;;2.92;1.50;;;;;212.10;228463.00;;;;5063161;28;20049;-59
2022/05/20 08:25:48;;;;;;;4.65;1.25;;;;;212.10;228463.00;;;;5062998;28;20087;-59
2022/05/20 08:28:15;;;;;;;4.28;1.73;;;;;212.10;228463.00;;;;5063114;28;20043;-59
2022/05/20 08:30:41;;;;;;;3.60;1.40;;;;;212.10;228463.00;;;;5061736;28;20029;-60
2022/05/20 08:33:08;;;;;;;2.33;1.38;;;;;212.10;228463.00;;;;5063468;28;20049;-61
2022/05/20 08:35:34;;;;;;;3.30;1.60;;;;;212.10;228463.00;;;;5063254;28;20443;-60
2022/05/20 08:38:04;;;;;;;5.55;1.73;;;9.70;94.00;212.10;228463.00;;;;5062924;28;20060;-60
2022/05/20 08:40:45;;;;;;;3.95;1.50;;;9.60;94.70;212.10;228463.00;;;;5062325;28;20049;-60
2022/05/20 08:43:13;;;;;;;4.90;1.67;;;9.60;91.80;212.10;228463.00;;;;5062907;28;20041;-60
2022/05/20 08:45:39;;;;;;;3.95;1.58;;;9.90;95.30;212.10;228463.00;;;;5061935;28;20045;-59
2022/05/20 08:48:08;;;;;;;5.22;1.80;;;;;212.10;228463.00;;;;5062621;28;20427;-60
2022/05/20 08:51:01;;;;;;;8.27;1.60;;;9.90;94.50;212.10;228463.00;;;;5061806;28;20112;-60
2022/05/20 08:53:40;;;;;;;4.38;1.65;;;9.90;93.90;212.10;228463.00;;;;5061593;28;20064;-60
2022/05/20 08:56:10;;;;;;;4.28;1.50;;;;;212.10;228463.00;;;;5052323;28;20463;-60
2022/05/20 08:58:41;;;;;;;4.15;1.58;;;9.90;87.50;212.10;228463.00;;;;5046997;28;20065;-60
2022/05/20 09:01:08;;;;;;;4.15;1.63;;;;;212.10;228463.00;;;;5045649;28;20049;-63
2022/05/20 09:03:35;;;;;;;3.03;1.75;;;;;212.10;228463.00;;;;5046014;28;20100;-61
2022/05/20 09:06:08;;;;;;;5.05;1.70;;;10.00;91.90;212.10;228463.00;;;;5042080;28;20030;-58
2022/05/20 09:08:34;;;;;;;4.07;1.83;;;;;212.10;228463.00;;;;5049094;28;20131;-61
2022/05/20 09:11:05;;;;;;;3.90;1.88;;;10.00;91.70;212.10;228463.00;;;;5057638;28;20030;-61
2022/05/20 09:16:33;;;;;;;2.72;1.73;;;9.90;91.10;212.10;228463.00;;;;5050452;28;20038;-58
2022/05/20 09:19:09;;;;;;;3.83;1.63;;;;;212.10;228463.00;;;;5049805;28;20044;-60
2022/05/20 09:21:46;;;;;;;7.63;1.50;;;;;212.10;228463.00;;;;5050528;28;20088;-59
2022/05/20 09:24:23;;;;;;;3.80;1.80;;;10.40;88.30;212.10;228463.00;;;;5050763;28;20573;-60
2022/05/20 10:41:00;;;;;;;2.10;1.30;;;;;12.30;98801.00;;;;5014924;27;1427160;-60
2022/05/20 10:43:29;;;;;;;2.67;1.20;;;;;12.30;98796.00;;;;5041169;27;81735;-61
2022/05/20 10:49:14;;;;;;;7.88;1.55;;;;;12.50;98796.00;;;;5040879;28;82472;-60
